Khanom, Thailand

11:58 PM ICT on September 02, 2014 (GMT +0700)
Samui | Change Station
CLOSE
Current Station
Airport
Location: Samui,
Elevation: 66 ft
Nearby Weather Stations

Elev 66 ft 9.55 °N, 100.06 °E | Updated 1 hour ago

Mostly Cloudy
Mostly Cloudy
81 °F
Feels Like 86 °F
N
0
Wind Variable Wind from North

Today
High -- | Low -- °F
--% Chance of Precip.
Yesterday
High -- | Low -- °F
Precip. -- in
6:11 AM 6:28 PM
First Quarter, 53% visible
Pressure 29.86 in
Visibility 6.2 miles
Clouds Few 2000 ft
Mostly Cloudy 30000 ft
Heat Index 86 °F
Dew Point 75 °F
Humidity 84%
Rainfall 0.00 in
Snow Depth Not available.
UV 0 out of 12
Pollen Not available.
Air Quality Not available.
Flu Activity Not available.
METAR VTSM 021500Z 00000KT 9999 FEW020 BKN300 27/24 Q1011 A2988

More Conditions Fewer Conditions

Pressure 29.86 in
Visibility 6.2 miles
Clouds Few 2000 ft
Mostly Cloudy 30000 ft
Heat Index 86 °F
Dew Point 75 °F
Humidity 84%
Rainfall 0.00 in
Snow Depth Not available.
UV 0 out of 12
Pollen Not available.
Air Quality Not available.
Flu Activity Not available.
METAR VTSM 021500Z 00000KT 9999 FEW020 BKN300 27/24 Q1011 A2988

More Conditions Fewer Conditions

10-Day Weather Forecast

Almanac

Astronomy

Sep. 02, 2014 Rise Set
Actual Time 6:11 AM ICT 6:28 PM ICT
Civil Twilight 5:50 AM ICT 6:49 PM ICT
Nautical Twilight 5:25 AM ICT 7:14 PM ICT
Astronomical Twilight 5:01 AM ICT 7:39 PM ICT
Moon 12:09 PM ICT No Moon Set
Length of Visible Light 12h 59m
Length of Day
12h 17m
Tomorrow will be 0m 29s shorter.
First Quarter, 53% of the Moon is Illuminated
Today
First Quarter
Sep 8
Full
Sep 15
Last Quarter
Sep 24
New
Oct 1
First Quarter

Today's Extremes

Country Highs Country Lows

Community

WunderPhotos

Upload Photos

1,749,716 photos uploaded!

WunderBlogs® & News

Nearby

Snow Depth

Not available.

Earthquake Activity

City Distance Mag. Time & Date
No recent earthquake activity has been reported nearby.
Minimum magnitude displayed is 2.5.

Coastal Water Temperatures

Place Temperature
No Stations Reporting

Nearby Weather Stations